createdAt,value
2023-01-06T00:00:45.356Z,11.52
2023-01-06T00:01:45.269Z,11.54
2023-01-06T00:02:45.276Z,11.54
2023-01-06T00:03:45.282Z,11.54
2023-01-06T00:04:45.343Z,11.52
2023-01-06T00:05:45.260Z,11.51
2023-01-06T00:06:45.208Z,11.51
2023-01-06T00:07:45.198Z,11.51
2023-01-06T00:08:45.200Z,11.52
2023-01-06T00:09:45.167Z,11.51
2023-01-06T00:10:45.197Z,11.52
2023-01-06T00:11:45.159Z,11.54
2023-01-06T00:12:45.154Z,11.54
2023-01-06T00:13:45.129Z,11.55
2023-01-06T00:14:45.119Z,11.55
2023-01-06T00:15:45.142Z,11.54
2023-01-06T00:16:45.132Z,11.55
2023-01-06T00:17:45.099Z,11.57
2023-01-06T00:18:45.146Z,11.55
2023-01-06T00:19:45.064Z,11.57
2023-01-06T00:20:45.062Z,11.55
2023-01-06T00:21:45.049Z,11.57
2023-01-06T00:22:45.060Z,11.59
2023-01-06T00:23:45.035Z,11.57
2023-01-06T00:24:45.002Z,11.57
2023-01-06T00:25:45.868Z,11.57
2023-01-06T00:26:44.986Z,11.59
2023-01-06T00:27:44.965Z,11.55
2023-01-06T00:28:45.003Z,11.54
2023-01-06T00:29:44.966Z,11.54
2023-01-06T00:30:44.969Z,11.52
2023-01-06T00:31:45.915Z,11.54
2023-01-06T00:32:44.916Z,11.51
2023-01-06T00:33:44.933Z,11.51
2023-01-06T00:34:44.914Z,11.50
2023-01-06T00:35:44.892Z,11.52
2023-01-06T00:36:44.870Z,11.51
2023-01-06T00:37:44.882Z,11.51
2023-01-06T00:38:44.866Z,11.52
2023-01-06T00:39:44.831Z,11.51
2023-01-06T00:40:44.838Z,11.51
2023-01-06T00:41:44.853Z,11.51
2023-01-06T00:42:44.817Z,11.50
2023-01-06T00:43:44.808Z,11.50
2023-01-06T00:44:44.788Z,11.50
2023-01-06T00:45:44.773Z,11.48
2023-01-06T00:46:44.779Z,11.50
2023-01-06T00:47:44.746Z,11.50
2023-01-06T00:48:59.930Z,11.48
2023-01-06T00:49:45.738Z,11.50
2023-01-06T00:50:44.718Z,11.50
2023-01-06T00:51:44.724Z,11.48
2023-01-06T00:52:44.688Z,11.48
2023-01-06T00:53:44.678Z,11.47
2023-01-06T00:54:44.707Z,11.48
2023-01-06T00:55:44.648Z,11.47
2023-01-06T00:56:44.631Z,11.45
2023-01-06T00:57:44.631Z,11.43
2023-01-06T00:58:44.618Z,11.43
2023-01-06T00:59:44.622Z,11.41
2023-01-06T01:00:44.621Z,11.41
2023-01-06T01:01:44.657Z,11.41
2023-01-06T01:02:44.665Z,11.41
2023-01-06T01:03:44.567Z,11.43
2023-01-06T01:04:44.552Z,11.44
2023-01-06T01:05:44.544Z,11.43
2023-01-06T01:06:44.540Z,11.44
2023-01-06T01:07:44.557Z,11.44
2023-01-06T01:08:44.544Z,11.44
2023-01-06T01:09:44.502Z,11.43
2023-01-06T01:10:44.489Z,11.43
2023-01-06T01:11:44.472Z,11.43
2023-01-06T01:12:44.474Z,11.43
2023-01-06T01:13:44.444Z,11.41
2023-01-06T01:14:44.475Z,11.41
2023-01-06T01:15:44.517Z,11.37
2023-01-06T01:16:44.431Z,11.37
2023-01-06T01:17:44.407Z,11.37
2023-01-06T01:18:44.523Z,11.37
2023-01-06T01:19:44.389Z,11.40
2023-01-06T01:20:44.427Z,11.37
2023-01-06T01:21:44.362Z,11.37
2023-01-06T01:22:44.363Z,11.37
2023-01-06T01:23:44.336Z,11.40
2023-01-06T01:24:44.337Z,11.36
2023-01-06T01:25:44.317Z,11.37
2023-01-06T01:26:44.321Z,11.35
2023-01-06T01:27:44.314Z,11.33
2023-01-06T01:28:44.299Z,11.35
2023-01-06T01:29:44.286Z,11.33
2023-01-06T01:30:44.280Z,11.35
2023-01-06T01:31:44.273Z,11.33
2023-01-06T01:32:44.240Z,11.33
2023-01-06T01:33:44.219Z,11.33
2023-01-06T01:34:44.229Z,11.33
2023-01-06T01:35:45.158Z,11.35
2023-01-06T01:36:45.175Z,11.35
2023-01-06T01:37:44.178Z,11.36
2023-01-06T01:38:44.161Z,11.36
2023-01-06T01:39:44.164Z,11.36
2023-01-06T01:40:44.150Z,11.35
2023-01-06T01:41:44.137Z,11.35
2023-01-06T01:42:44.153Z,11.36
2023-01-06T01:43:44.110Z,11.36
2023-01-06T01:44:44.129Z,11.37
2023-01-06T01:45:45.047Z,11.37
2023-01-06T01:46:44.080Z,11.40
2023-01-06T01:47:44.101Z,11.41
2023-01-06T01:48:44.052Z,11.40
2023-01-06T01:49:44.043Z,11.41
2023-01-06T01:50:44.049Z,11.41
2023-01-06T01:51:44.016Z,11.41
2023-01-06T01:52:44.023Z,11.43
2023-01-06T01:53:44.022Z,11.43
2023-01-06T01:54:43.982Z,11.41
2023-01-06T01:55:43.993Z,11.40
2023-01-06T01:56:43.968Z,11.40
2023-01-06T01:57:43.953Z,11.37
2023-01-06T01:58:43.962Z,11.36
2023-01-06T01:59:43.943Z,11.35
2023-01-06T02:00:43.924Z,11.36
2023-01-06T02:01:44.021Z,11.35
2023-01-06T02:02:43.998Z,11.33
2023-01-06T02:03:43.939Z,11.33
2023-01-06T02:04:43.888Z,11.32
2023-01-06T02:05:43.865Z,11.30
2023-01-06T02:06:43.859Z,11.30
2023-01-06T02:07:43.837Z,11.30
2023-01-06T02:08:43.840Z,11.30
2023-01-06T02:09:50.538Z,11.32
2023-01-06T02:10:43.818Z,11.33
2023-01-06T02:11:43.808Z,11.33
2023-01-06T02:12:43.782Z,11.35
2023-01-06T02:13:43.788Z,11.36
2023-01-06T02:14:43.762Z,11.36
2023-01-06T02:15:43.782Z,11.36
2023-01-06T02:16:43.746Z,11.37
2023-01-06T02:17:43.722Z,11.40
2023-01-06T02:18:43.719Z,11.40
2023-01-06T02:19:43.748Z,11.41
2023-01-06T02:20:43.701Z,11.40
2023-01-06T02:21:43.691Z,11.37
2023-01-06T02:22:43.671Z,11.36
2023-01-06T02:23:43.660Z,11.40
2023-01-06T02:24:43.677Z,11.40
2023-01-06T02:25:43.661Z,11.37
2023-01-06T02:26:43.647Z,11.36
2023-01-06T02:27:43.605Z,11.35
2023-01-06T02:28:43.612Z,11.35
2023-01-06T02:29:43.582Z,11.33
2023-01-06T02:30:43.625Z,11.30
2023-01-06T02:31:43.565Z,11.30
2023-01-06T02:32:43.560Z,11.27
2023-01-06T02:33:43.564Z,11.30
2023-01-06T02:34:43.549Z,11.29
2023-01-06T02:35:43.515Z,11.26
2023-01-06T02:36:43.544Z,11.27
2023-01-06T02:37:43.503Z,11.29
2023-01-06T02:38:43.501Z,11.30
2023-01-06T02:39:43.471Z,11.29
2023-01-06T02:40:43.521Z,11.30
2023-01-06T02:41:44.410Z,11.32
2023-01-06T02:42:43.439Z,11.32
2023-01-06T02:43:43.446Z,11.33
2023-01-06T02:44:43.421Z,11.35
2023-01-06T02:45:43.407Z,11.35
2023-01-06T02:46:43.480Z,11.35
2023-01-06T02:47:43.387Z,11.35
2023-01-06T02:48:43.400Z,11.37
2023-01-06T02:49:43.367Z,11.37
2023-01-06T02:50:43.389Z,11.37
2023-01-06T02:51:43.373Z,11.36
2023-01-06T02:52:43.355Z,11.36
2023-01-06T02:53:43.318Z,11.35
2023-01-06T02:54:43.313Z,11.37
2023-01-06T02:55:43.306Z,11.37
2023-01-06T02:56:43.310Z,11.37
2023-01-06T02:57:43.274Z,11.40
2023-01-06T02:58:43.269Z,11.37
2023-01-06T02:59:43.278Z,11.41
2023-01-06T03:00:43.279Z,11.40
2023-01-06T03:01:43.335Z,11.37
2023-01-06T03:02:43.251Z,11.36
2023-01-06T03:03:43.207Z,11.37
2023-01-06T03:04:43.297Z,11.37
2023-01-06T03:05:43.200Z,11.37
2023-01-06T03:06:43.179Z,11.36
2023-01-06T03:07:43.186Z,11.37
2023-01-06T03:08:43.185Z,11.36
2023-01-06T03:09:43.137Z,11.36
2023-01-06T03:10:43.143Z,11.36
2023-01-06T03:11:43.121Z,11.36
2023-01-06T03:12:43.107Z,11.36
2023-01-06T03:13:43.133Z,11.37
2023-01-06T03:14:43.114Z,11.37
2023-01-06T03:15:43.080Z,11.37
2023-01-06T03:16:43.090Z,11.37
2023-01-06T03:17:43.088Z,11.36
2023-01-06T03:18:43.045Z,11.36
2023-01-06T03:19:43.044Z,11.37
2023-01-06T03:20:43.014Z,11.36
2023-01-06T03:21:43.003Z,11.37
2023-01-06T03:22:43.032Z,11.37
2023-01-06T03:23:43.015Z,11.43
2023-01-06T03:24:43.005Z,11.43
2023-01-06T03:25:43.017Z,11.43
2023-01-06T03:26:42.969Z,11.43
2023-01-06T03:27:42.945Z,11.43
2023-01-06T03:28:42.950Z,11.43
2023-01-06T03:29:42.920Z,11.41
2023-01-06T03:30:42.915Z,11.43
2023-01-06T03:31:43.008Z,11.41
2023-01-06T03:32:42.889Z,11.40
2023-01-06T03:33:42.872Z,11.40
2023-01-06T03:34:42.869Z,11.37
2023-01-06T03:35:42.939Z,11.37
2023-01-06T03:36:42.881Z,11.37
2023-01-06T03:37:42.844Z,11.37
2023-01-06T03:38:43.777Z,11.40
2023-01-06T03:39:42.828Z,11.37
2023-01-06T03:40:42.830Z,11.37
2023-01-06T03:41:42.803Z,11.40
2023-01-06T03:42:42.772Z,11.37
2023-01-06T03:43:42.800Z,11.36
2023-01-06T03:44:42.764Z,11.36
2023-01-06T03:45:42.741Z,11.37
2023-01-06T03:46:42.762Z,11.37
2023-01-06T03:47:42.785Z,11.37
2023-01-06T03:48:42.704Z,11.40
2023-01-06T03:49:42.698Z,11.41
2023-01-06T03:50:42.703Z,11.43
2023-01-06T03:51:42.674Z,11.43
2023-01-06T03:52:42.659Z,11.44
2023-01-06T03:53:42.666Z,11.43
2023-01-06T03:54:42.674Z,11.44
2023-01-06T03:55:42.637Z,11.43
2023-01-06T03:56:42.618Z,11.44
2023-01-06T03:57:42.606Z,11.47
2023-01-06T03:58:42.588Z,11.45
2023-01-06T03:59:42.585Z,11.47
2023-01-06T04:00:42.680Z,11.47
2023-01-06T04:01:42.598Z,11.47
2023-01-06T04:02:42.566Z,11.45
2023-01-06T04:03:42.591Z,11.44
2023-01-06T04:04:42.532Z,11.44
2023-01-06T04:05:42.522Z,11.44
2023-01-06T04:06:42.543Z,11.44
2023-01-06T04:07:42.528Z,11.44
2023-01-06T04:08:42.505Z,11.43
2023-01-06T04:09:42.467Z,11.45
2023-01-06T04:10:42.495Z,11.44
2023-01-06T04:11:43.394Z,11.45
2023-01-06T04:12:42.447Z,11.47
2023-01-06T04:13:42.439Z,11.48
2023-01-06T04:14:43.385Z,11.47
2023-01-06T04:15:42.405Z,11.50
2023-01-06T04:16:42.394Z,11.50
2023-01-06T04:17:42.369Z,11.50
2023-01-06T04:18:42.410Z,11.50
2023-01-06T04:19:42.353Z,11.52
2023-01-06T04:20:42.365Z,11.52
2023-01-06T04:21:43.286Z,11.52
2023-01-06T04:22:42.353Z,11.52
2023-01-06T04:23:42.363Z,11.52
2023-01-06T04:24:42.335Z,11.52
2023-01-06T04:25:44.782Z,11.52
2023-01-06T04:26:42.295Z,11.52
2023-01-06T04:27:42.285Z,11.51
2023-01-06T04:28:42.279Z,11.51
2023-01-06T04:29:42.247Z,11.51
2023-01-06T04:30:42.244Z,11.51
2023-01-06T04:31:42.296Z,11.48
2023-01-06T04:32:42.246Z,11.48
2023-01-06T04:33:42.201Z,11.47
2023-01-06T04:34:42.196Z,11.47
2023-01-06T04:35:42.180Z,11.47
2023-01-06T04:36:42.179Z,11.47
2023-01-06T04:37:42.161Z,11.47
2023-01-06T04:38:42.178Z,11.45
2023-01-06T04:39:42.134Z,11.47
2023-01-06T04:40:42.122Z,11.45
2023-01-06T04:41:42.139Z,11.45
2023-01-06T04:42:42.106Z,11.44
2023-01-06T04:43:42.105Z,11.44
2023-01-06T04:44:42.077Z,11.44
2023-01-06T04:45:42.094Z,11.43
2023-01-06T04:46:42.112Z,11.44
2023-01-06T04:47:42.056Z,11.41
2023-01-06T04:48:42.035Z,11.43
2023-01-06T04:49:42.027Z,11.43
2023-01-06T04:50:42.018Z,11.43
2023-01-06T04:51:41.995Z,11.43
2023-01-06T04:52:42.020Z,11.43
2023-01-06T04:53:41.987Z,11.44
2023-01-06T04:54:41.971Z,11.44
2023-01-06T04:55:41.961Z,11.44
2023-01-06T04:56:41.938Z,11.43
2023-01-06T04:57:41.941Z,11.43
2023-01-06T04:58:41.946Z,11.43
2023-01-06T04:59:41.909Z,11.43
2023-01-06T05:00:41.926Z,11.41
2023-01-06T05:01:41.998Z,11.43
2023-01-06T05:02:41.880Z,11.41
2023-01-06T05:03:41.947Z,11.41
2023-01-06T05:04:47.684Z,11.41
2023-01-06T05:05:42.832Z,11.41
2023-01-06T05:06:41.877Z,11.37
2023-01-06T05:07:41.807Z,11.37
2023-01-06T05:08:41.804Z,11.37
2023-01-06T05:09:41.784Z,11.36
2023-01-06T05:10:41.785Z,11.36
2023-01-06T05:11:41.785Z,11.33
2023-01-06T05:12:41.815Z,11.36
2023-01-06T05:13:41.746Z,11.36
2023-01-06T05:14:41.744Z,11.36
2023-01-06T05:15:41.726Z,11.36
2023-01-06T05:16:41.761Z,11.35
2023-01-06T05:17:41.697Z,11.35
2023-01-06T05:18:41.740Z,11.35
2023-01-06T05:19:41.702Z,11.36
2023-01-06T05:20:41.677Z,11.36
2023-01-06T05:21:41.656Z,11.35
2023-01-06T05:22:41.648Z,11.35
2023-01-06T05:23:41.644Z,11.35
2023-01-06T05:24:41.659Z,11.35
2023-01-06T05:25:41.616Z,11.35
2023-01-06T05:26:41.605Z,11.35
2023-01-06T05:27:41.599Z,11.35
2023-01-06T05:28:41.572Z,11.35
2023-01-06T05:29:41.624Z,11.36
2023-01-06T05:30:41.559Z,11.33
2023-01-06T05:31:41.686Z,11.33
2023-01-06T05:32:41.567Z,11.35
2023-01-06T05:33:41.527Z,11.35
2023-01-06T05:34:41.516Z,11.33
2023-01-06T05:35:41.514Z,11.33
2023-01-06T05:36:41.550Z,11.35
2023-01-06T05:37:41.475Z,11.33
2023-01-06T05:38:41.469Z,11.35
2023-01-06T05:39:41.474Z,11.32
2023-01-06T05:40:41.448Z,11.33
2023-01-06T05:41:41.461Z,11.33
2023-01-06T05:42:41.438Z,11.33
2023-01-06T05:43:41.404Z,11.32
2023-01-06T05:44:41.394Z,11.32
2023-01-06T05:45:41.447Z,11.33
2023-01-06T05:46:41.403Z,11.35
2023-01-06T05:47:41.393Z,11.35
2023-01-06T05:48:41.344Z,11.35
2023-01-06T05:49:41.347Z,11.35
2023-01-06T05:50:41.322Z,11.36
2023-01-06T05:51:41.333Z,11.36
2023-01-06T05:52:41.343Z,11.35
2023-01-06T05:53:41.301Z,11.36
2023-01-06T05:54:41.277Z,11.36
2023-01-06T05:55:41.285Z,11.37
2023-01-06T05:56:41.266Z,11.37
2023-01-06T05:57:41.251Z,11.37
2023-01-06T05:58:41.279Z,11.37
2023-01-06T05:59:41.236Z,11.36
2023-01-06T06:00:41.221Z,11.37
2023-01-06T06:01:41.234Z,11.35
2023-01-06T06:02:41.243Z,11.33
2023-01-06T06:03:41.223Z,11.32
2023-01-06T06:04:41.172Z,11.32
2023-01-06T06:05:41.158Z,11.33
2023-01-06T06:06:41.156Z,11.32
2023-01-06T06:07:41.137Z,11.32
2023-01-06T06:08:41.164Z,11.33
2023-01-06T06:09:41.109Z,11.30
2023-01-06T06:10:41.100Z,11.29
2023-01-06T06:11:41.094Z,11.29
2023-01-06T06:12:41.071Z,11.27
2023-01-06T06:13:41.069Z,11.27
2023-01-06T06:14:41.081Z,11.27
2023-01-06T06:15:41.052Z,11.26
2023-01-06T06:16:41.083Z,11.27
2023-01-06T06:17:41.026Z,11.27
2023-01-06T06:18:41.005Z,11.27
2023-01-06T06:19:41.049Z,11.27
2023-01-06T06:20:40.992Z,11.27
2023-01-06T06:21:41.001Z,11.27
2023-01-06T06:22:40.965Z,11.29
2023-01-06T06:23:40.999Z,11.27
2023-01-06T06:24:40.972Z,11.27
2023-01-06T06:25:40.981Z,11.29
2023-01-06T06:26:40.919Z,11.27
2023-01-06T06:27:40.926Z,11.26
2023-01-06T06:28:40.930Z,11.29
2023-01-06T06:29:40.913Z,11.29
2023-01-06T06:30:40.898Z,11.29
2023-01-06T06:31:40.923Z,11.27
2023-01-06T06:32:40.850Z,11.29
2023-01-06T06:33:40.858Z,11.29
2023-01-06T06:34:40.846Z,11.29
2023-01-06T06:35:40.818Z,11.29
2023-01-06T06:36:40.827Z,11.29
2023-01-06T06:37:40.804Z,11.27
2023-01-06T06:38:40.777Z,11.27
2023-01-06T06:39:40.774Z,11.26
2023-01-06T06:40:40.772Z,11.26
2023-01-06T06:41:40.785Z,11.23
2023-01-06T06:42:40.740Z,11.23
2023-01-06T06:43:40.732Z,11.23
2023-01-06T06:44:40.718Z,11.23
2023-01-06T06:45:40.737Z,11.23
2023-01-06T06:46:40.746Z,11.23
2023-01-06T06:47:40.688Z,11.23
2023-01-06T06:48:40.680Z,11.22
2023-01-06T06:49:40.674Z,11.22
2023-01-06T06:50:40.647Z,11.22
2023-01-06T06:51:40.656Z,11.19
2023-01-06T06:52:40.659Z,11.22
2023-01-06T06:53:40.631Z,11.19
2023-01-06T06:54:40.624Z,11.18
2023-01-06T06:55:40.599Z,11.19
2023-01-06T06:56:40.593Z,11.22
2023-01-06T06:57:40.594Z,11.22
2023-01-06T06:58:40.609Z,11.23
2023-01-06T06:59:40.564Z,11.22
2023-01-06T07:00:40.532Z,11.22
2023-01-06T07:01:40.630Z,11.23
2023-01-06T07:02:40.523Z,11.22
2023-01-06T07:03:40.505Z,11.23
2023-01-06T07:04:40.629Z,11.25
2023-01-06T07:05:40.474Z,11.25
2023-01-06T07:06:40.470Z,11.25
2023-01-06T07:07:40.464Z,11.25
2023-01-06T07:08:41.417Z,11.23
2023-01-06T07:09:40.481Z,11.22
2023-01-06T07:10:40.427Z,11.22
2023-01-06T07:11:40.448Z,11.19
2023-01-06T07:12:40.416Z,11.18
2023-01-06T07:13:40.385Z,11.18
2023-01-06T07:14:40.425Z,11.18
2023-01-06T07:15:40.471Z,11.19
2023-01-06T07:16:40.346Z,11.19
2023-01-06T07:17:40.349Z,11.23
2023-01-06T07:18:40.339Z,11.22
2023-01-06T07:19:40.580Z,11.23
2023-01-06T07:20:40.348Z,11.23
2023-01-06T07:21:40.319Z,11.23
2023-01-06T07:22:40.277Z,11.25
2023-01-06T07:23:40.281Z,11.26
2023-01-06T07:24:41.225Z,11.25
2023-01-06T07:25:40.286Z,11.26
2023-01-06T07:26:40.245Z,11.26
2023-01-06T07:27:40.230Z,11.26
2023-01-06T07:28:40.220Z,11.26
2023-01-06T07:29:40.209Z,11.26
2023-01-06T07:30:40.222Z,11.27
2023-01-06T07:31:40.217Z,11.26
2023-01-06T07:32:40.170Z,11.27
2023-01-06T07:33:40.275Z,11.27
2023-01-06T07:34:40.142Z,11.29
2023-01-06T07:35:40.182Z,11.29
2023-01-06T07:36:40.158Z,11.29
2023-01-06T07:37:40.165Z,11.29
2023-01-06T07:38:40.116Z,11.27
2023-01-06T07:39:40.096Z,11.29
2023-01-06T07:40:40.089Z,11.29
2023-01-06T07:41:40.072Z,11.29
2023-01-06T07:42:40.084Z,11.29
2023-01-06T07:43:40.071Z,11.30
2023-01-06T07:44:40.042Z,11.30
2023-01-06T07:45:40.046Z,11.30
2023-01-06T07:46:40.018Z,11.30
2023-01-06T07:47:40.031Z,11.30
2023-01-06T07:48:40.311Z,11.29
2023-01-06T07:49:40.025Z,11.29
2023-01-06T07:50:40.052Z,11.27
2023-01-06T07:51:39.962Z,11.29
2023-01-06T07:52:39.947Z,11.29
2023-01-06T07:53:39.947Z,11.30
2023-01-06T07:54:40.309Z,11.30
2023-01-06T07:55:40.881Z,11.29
2023-01-06T07:56:39.905Z,11.29
2023-01-06T07:57:40.575Z,11.30
2023-01-06T07:58:39.896Z,11.29
2023-01-06T07:59:39.867Z,11.32
2023-01-06T08:00:39.890Z,11.30
2023-01-06T08:01:39.960Z,11.30
2023-01-06T08:02:39.962Z,11.32
2023-01-06T08:03:39.835Z,11.30
2023-01-06T08:04:39.817Z,11.33
2023-01-06T08:05:39.802Z,11.33
2023-01-06T08:06:39.815Z,11.33
2023-01-06T08:07:39.801Z,11.32
2023-01-06T08:08:39.827Z,11.32
2023-01-06T08:09:39.761Z,11.30
2023-01-06T08:10:39.744Z,11.29
2023-01-06T08:11:39.789Z,11.27
2023-01-06T08:12:39.754Z,11.26
2023-01-06T08:13:39.713Z,11.25
2023-01-06T08:14:39.697Z,11.26
2023-01-06T08:15:39.716Z,11.27
2023-01-06T08:16:39.711Z,11.26
2023-01-06T08:17:39.706Z,11.26
2023-01-06T08:18:39.693Z,11.25
2023-01-06T08:19:39.643Z,11.26
2023-01-06T08:20:39.635Z,11.26
2023-01-06T08:21:39.707Z,11.25
2023-01-06T08:22:39.637Z,11.26
2023-01-06T08:23:39.631Z,11.26
2023-01-06T08:24:39.586Z,11.26
2023-01-06T08:25:39.582Z,11.26
2023-01-06T08:26:39.583Z,11.27
2023-01-06T08:27:39.602Z,11.29
2023-01-06T08:28:39.689Z,11.30
2023-01-06T08:29:39.554Z,11.30
2023-01-06T08:30:39.529Z,11.32
2023-01-06T08:31:39.553Z,11.30
2023-01-06T08:32:39.512Z,11.32
2023-01-06T08:33:39.518Z,11.32
2023-01-06T08:34:39.493Z,11.32
2023-01-06T08:35:39.555Z,11.32
2023-01-06T08:36:39.525Z,11.35
2023-01-06T08:37:39.453Z,11.33
2023-01-06T08:38:39.461Z,11.35
2023-01-06T08:39:39.420Z,11.35
2023-01-06T08:40:39.399Z,11.35
2023-01-06T08:41:39.437Z,11.36
2023-01-06T08:42:39.434Z,11.35
2023-01-06T08:43:39.402Z,11.36
2023-01-06T08:44:39.371Z,11.36
2023-01-06T08:45:39.395Z,11.40
2023-01-06T08:46:39.387Z,11.37
2023-01-06T08:47:39.344Z,11.37
2023-01-06T08:48:39.331Z,11.37
2023-01-06T08:49:39.338Z,11.41
2023-01-06T08:50:39.351Z,11.40
2023-01-06T08:51:39.282Z,11.40
2023-01-06T08:52:39.279Z,11.41
2023-01-06T08:53:39.291Z,11.41
2023-01-06T08:54:39.249Z,11.41
2023-01-06T08:55:39.241Z,11.43
2023-01-06T08:56:39.244Z,11.43
2023-01-06T08:57:39.238Z,11.43
2023-01-06T08:58:39.208Z,11.44
2023-01-06T08:59:39.230Z,11.50
2023-01-06T09:00:39.176Z,11.50
2023-01-06T09:01:39.393Z,11.47
2023-01-06T09:02:40.108Z,11.44
2023-01-06T09:03:39.141Z,11.36
2023-01-06T09:04:39.199Z,11.35
2023-01-06T09:05:39.134Z,11.30
2023-01-06T09:06:39.125Z,11.26
2023-01-06T09:07:39.101Z,11.26
2023-01-06T09:08:39.117Z,11.25
2023-01-06T09:09:39.089Z,11.23
2023-01-06T09:10:39.084Z,11.19
2023-01-06T09:11:39.076Z,11.17
2023-01-06T09:12:39.078Z,11.12
2023-01-06T09:13:39.035Z,11.11
2023-01-06T09:14:39.025Z,11.08
2023-01-06T09:15:39.013Z,11.07
2023-01-06T09:16:38.998Z,11.05
2023-01-06T09:17:38.992Z,11.05
2023-01-06T09:18:39.038Z,11.05
2023-01-06T09:19:39.929Z,11.02
2023-01-06T09:20:39.008Z,10.99
2023-01-06T09:21:38.996Z,10.97
2023-01-06T09:22:38.970Z,10.97
2023-01-06T09:23:38.929Z,10.97
2023-01-06T09:24:38.896Z,10.96
2023-01-06T09:25:38.908Z,10.97
2023-01-06T09:26:38.881Z,10.94
2023-01-06T09:27:38.929Z,10.93
2023-01-06T09:28:39.807Z,10.92
2023-01-06T09:29:38.867Z,10.87
2023-01-06T09:30:38.840Z,10.81
2023-01-06T09:31:38.848Z,10.78
2023-01-06T09:32:38.822Z,10.74
2023-01-06T09:33:38.892Z,10.74
2023-01-06T09:34:40.377Z,10.72
2023-01-06T09:35:40.247Z,10.69
2023-01-06T09:36:38.792Z,10.67
2023-01-06T09:37:38.765Z,10.67
2023-01-06T09:38:38.770Z,10.67
2023-01-06T09:39:38.735Z,10.64
2023-01-06T09:40:38.764Z,10.63
2023-01-06T09:41:38.740Z,10.64
2023-01-06T09:42:38.744Z,10.67
2023-01-06T09:43:38.703Z,10.64
2023-01-06T09:44:38.751Z,10.67
2023-01-06T09:45:38.673Z,10.68
2023-01-06T09:46:38.741Z,10.68
2023-01-06T09:47:38.666Z,10.68
2023-01-06T09:48:38.648Z,10.69
2023-01-06T09:49:38.676Z,10.68
2023-01-06T09:50:38.684Z,10.69
2023-01-06T09:51:38.920Z,10.69
2023-01-06T09:52:38.901Z,10.68
2023-01-06T09:53:38.597Z,10.71
2023-01-06T09:54:38.575Z,10.69
2023-01-06T09:55:38.581Z,10.71
2023-01-06T09:56:38.663Z,10.72
2023-01-06T09:57:38.544Z,10.75
2023-01-06T09:58:38.531Z,10.82
2023-01-06T09:59:38.559Z,10.82
2023-01-06T10:00:38.511Z,10.79
2023-01-06T10:01:39.442Z,10.78
2023-01-06T10:02:38.667Z,10.78
2023-01-06T10:03:38.523Z,10.78
2023-01-06T10:04:38.469Z,10.79
2023-01-06T10:05:38.450Z,10.79
2023-01-06T10:06:38.552Z,10.79
2023-01-06T10:07:38.468Z,10.81
2023-01-06T10:08:38.437Z,10.82
2023-01-06T10:09:38.439Z,10.82
2023-01-06T10:10:38.409Z,10.84
2023-01-06T10:11:38.379Z,10.84
2023-01-06T10:12:38.396Z,10.84
2023-01-06T10:13:38.390Z,10.86
2023-01-06T10:14:38.364Z,10.86
2023-01-06T10:15:38.351Z,10.86
2023-01-06T10:16:38.335Z,10.89
2023-01-06T10:17:38.385Z,10.90
2023-01-06T10:18:38.303Z,10.93
2023-01-06T10:19:38.310Z,10.94
2023-01-06T10:20:38.284Z,10.96
2023-01-06T10:21:38.265Z,10.99
2023-01-06T10:22:38.274Z,10.97
2023-01-06T10:23:38.288Z,11.00
2023-01-06T10:24:38.258Z,11.00
2023-01-06T10:25:38.232Z,11.02
2023-01-06T10:26:38.218Z,11.02
2023-01-06T10:27:38.210Z,11.04
2023-01-06T10:28:38.202Z,11.07
2023-01-06T10:29:38.212Z,11.08
2023-01-06T10:30:43.715Z,11.10
2023-01-06T10:31:39.195Z,11.11
2023-01-06T10:32:38.148Z,11.14
2023-01-06T10:33:38.145Z,11.17
2023-01-06T10:34:38.152Z,11.17
2023-01-06T10:35:38.216Z,11.19
2023-01-06T10:36:38.108Z,11.22
2023-01-06T10:37:38.084Z,11.22
2023-01-06T10:38:38.076Z,11.23
2023-01-06T10:39:38.084Z,11.26
2023-01-06T10:40:38.073Z,11.27
2023-01-06T10:41:38.091Z,11.29
2023-01-06T10:42:38.040Z,11.30
2023-01-06T10:43:38.021Z,11.29
2023-01-06T10:44:38.219Z,11.29
2023-01-06T10:45:38.000Z,11.30
2023-01-06T10:46:38.019Z,11.33
2023-01-06T10:47:38.002Z,11.33
2023-01-06T10:48:37.968Z,11.36
2023-01-06T10:49:38.018Z,11.37
2023-01-06T10:50:37.944Z,11.37
2023-01-06T10:51:37.980Z,11.40
2023-01-06T10:52:37.928Z,11.43
2023-01-06T10:53:37.915Z,11.44
2023-01-06T10:54:37.910Z,11.43
2023-01-06T10:55:37.903Z,11.44
2023-01-06T10:56:37.899Z,11.47
2023-01-06T10:57:37.893Z,11.48
2023-01-06T10:58:37.866Z,11.50
2023-01-06T10:59:37.841Z,11.51
2023-01-06T11:00:37.871Z,11.51
2023-01-06T11:01:38.014Z,11.52
2023-01-06T11:02:38.056Z,11.54
2023-01-06T11:03:37.895Z,11.57
2023-01-06T11:04:37.984Z,11.57
2023-01-06T11:05:39.221Z,11.59
2023-01-06T11:06:37.777Z,11.60
2023-01-06T11:07:37.805Z,11.60
2023-01-06T11:08:38.484Z,11.62
2023-01-06T11:09:37.828Z,11.65
2023-01-06T11:10:37.999Z,11.66
2023-01-06T11:11:37.745Z,11.68
2023-01-06T11:12:37.727Z,11.69
2023-01-06T11:13:37.740Z,11.70
2023-01-06T11:14:37.677Z,11.72
2023-01-06T11:15:37.659Z,11.75
2023-01-06T11:16:37.727Z,11.78
2023-01-06T11:17:38.492Z,11.80
2023-01-06T11:18:37.637Z,11.83
2023-01-06T11:19:39.068Z,11.83
2023-01-06T11:20:37.615Z,11.86
2023-01-06T11:21:37.837Z,11.87
2023-01-06T11:22:38.435Z,11.87
2023-01-06T11:23:38.289Z,11.90
2023-01-06T11:24:38.587Z,11.90
2023-01-06T11:25:37.562Z,11.94
2023-01-06T11:26:37.995Z,11.94
2023-01-06T11:27:37.776Z,11.97
2023-01-06T11:28:37.558Z,11.99
2023-01-06T11:29:37.530Z,12.02
2023-01-06T11:30:38.464Z,12.03
2023-01-06T11:31:38.186Z,12.02
2023-01-06T11:32:37.588Z,12.00
2023-01-06T11:33:38.257Z,12.03
2023-01-06T11:34:38.421Z,12.04
2023-01-06T11:35:38.251Z,12.09
2023-01-06T11:36:38.254Z,12.10
2023-01-06T11:37:38.881Z,12.17
2023-01-06T11:38:37.413Z,12.21
2023-01-06T11:39:37.977Z,12.24
2023-01-06T11:40:37.455Z,12.28
2023-01-06T11:41:37.595Z,12.31
2023-01-06T11:42:38.179Z,12.32
2023-01-06T11:43:37.856Z,12.35
2023-01-06T11:44:38.792Z,12.35
2023-01-06T11:45:37.828Z,12.31
2023-01-06T11:46:38.836Z,12.32
2023-01-06T11:47:38.354Z,12.32
2023-01-06T11:48:38.090Z,12.29
2023-01-06T11:49:38.744Z,12.28
2023-01-06T11:50:37.498Z,12.28
2023-01-06T11:51:37.677Z,12.27
2023-01-06T11:52:37.322Z,12.28
2023-01-06T11:53:37.307Z,12.32
2023-01-06T11:54:37.574Z,12.36
2023-01-06T11:55:37.217Z,12.39
2023-01-06T11:56:37.217Z,12.45
2023-01-06T11:57:37.202Z,12.46
2023-01-06T11:58:37.209Z,12.49
2023-01-06T11:59:37.172Z,12.53
2023-01-06T12:00:37.158Z,12.57
2023-01-06T12:01:37.202Z,12.61
2023-01-06T12:02:37.899Z,12.62
2023-01-06T12:03:37.296Z,12.62
2023-01-06T12:04:38.059Z,12.61
2023-01-06T12:05:37.329Z,12.58
2023-01-06T12:06:37.139Z,12.58
2023-01-06T12:07:37.805Z,12.58
2023-01-06T12:08:37.498Z,12.58
2023-01-06T12:09:37.067Z,12.58
2023-01-06T12:10:37.069Z,12.60
2023-01-06T12:11:37.232Z,12.58
2023-01-06T12:12:37.030Z,12.58
2023-01-06T12:13:44.232Z,12.58
2023-01-06T12:14:38.025Z,12.58
2023-01-06T12:15:37.002Z,12.60
2023-01-06T12:16:37.115Z,12.60
2023-01-06T12:17:37.114Z,12.61
2023-01-06T12:18:36.970Z,12.62
2023-01-06T12:19:37.897Z,12.62
2023-01-06T12:20:36.972Z,12.64
2023-01-06T12:21:36.930Z,12.68
2023-01-06T12:22:36.924Z,12.70
2023-01-06T12:23:36.911Z,12.70
2023-01-06T12:24:36.890Z,12.67
2023-01-06T12:25:36.928Z,12.67
2023-01-06T12:26:36.893Z,12.67
2023-01-06T12:27:37.816Z,12.68
2023-01-06T12:28:36.871Z,12.70
2023-01-06T12:29:36.850Z,12.72
2023-01-06T12:30:36.918Z,12.72
2023-01-06T12:31:36.834Z,12.70
2023-01-06T12:32:37.244Z,12.67
2023-01-06T12:33:36.802Z,12.67
2023-01-06T12:34:36.799Z,12.67
2023-01-06T12:35:36.774Z,12.67
2023-01-06T12:36:37.617Z,12.67
2023-01-06T12:37:36.930Z,12.70
2023-01-06T12:38:36.748Z,12.72
2023-01-06T12:39:36.719Z,12.73
2023-01-06T12:40:36.725Z,12.76
2023-01-06T12:41:36.704Z,12.80
2023-01-06T12:42:36.735Z,12.90
2023-01-06T12:43:36.678Z,12.97
2023-01-06T12:44:36.669Z,13.05
2023-01-06T12:45:37.748Z,13.18
2023-01-06T12:46:36.688Z,13.27
2023-01-06T12:47:36.776Z,13.35
2023-01-06T12:48:36.709Z,13.46
2023-01-06T12:49:36.610Z,13.60
2023-01-06T12:50:36.612Z,13.70
2023-01-06T12:51:36.584Z,13.74
2023-01-06T12:52:36.635Z,13.74